Time;durP1;ratioP1;P1;durP2;ratioP2;P2;SDS_P1;SDS_P2;PMS_P1;PMS_P2;Temp;Humidity;BMP_temperature;BMP_pressure;BME280_temperature;BME280_humidity;BME280_pressure;Samples;Min_cycle;Max_cycle;Signal;HPM_P1;HPM_P2
2023/11/01 00:02:07;;;;;;;55.87;2.10;;;;;;;;;;5051413;28;20464;-71
2023/11/01 00:04:35;;;;;;;57.60;4.20;;;;;;;;;;5054613;28;20444;-71
2023/11/01 00:07:02;;;;;;;55.93;2.17;;;;;;;;;;5054584;28;20451;-71
2023/11/01 00:09:29;;;;;;;55.70;2.20;;;;;;;;;;5054344;28;20575;-71
2023/11/01 00:11:56;;;;;;;55.33;1.90;;;;;;;;;;5054188;28;20456;-71
2023/11/01 00:14:24;;;;;;;55.90;2.20;;;;;;;;;;5054276;28;20444;-71
2023/11/01 00:16:51;;;;;;;55.87;2.10;;;;;;;;;;5053966;28;20446;-71
2023/11/01 00:19:18;;;;;;;55.17;2.00;;;;;;;;;;5054348;28;20444;-70
2023/11/01 00:21:46;;;;;;;55.60;2.00;;;;;;;;;;5053938;28;20932;-71
2023/11/01 00:24:13;;;;;;;55.10;1.87;;;;;;;;;;5054351;28;20446;-70
2023/11/01 00:26:40;;;;;;;55.90;2.10;;;;;;;;;;5053800;28;20450;-72
2023/11/01 00:29:08;;;;;;;55.63;2.10;;;;;;;;;;5053849;28;20487;-70
2023/11/01 00:31:35;;;;;;;56.00;2.33;;;;;;;;;;5053965;28;20450;-71
2023/11/01 00:34:02;;;;;;;55.67;1.80;;;;;;;;;;5053740;28;20479;-71
2023/11/01 00:36:29;;;;;;;55.10;1.83;;;;;;;;;;5053902;28;20815;-72
2023/11/01 00:38:57;;;;;;;54.80;1.90;;;;;;;;;;5054020;28;20531;-71
2023/11/01 00:41:24;;;;;;;55.60;2.00;;;;;;;;;;5053774;28;20994;-71
2023/11/01 00:43:51;;;;;;;55.27;1.93;;;;;;;;;;5054242;28;20458;-71
2023/11/01 00:46:19;;;;;;;55.77;1.90;;;;;;;;;;5053788;28;20542;-71
2023/11/01 00:48:46;;;;;;;55.70;1.80;;;;;;;;;;5053723;28;21057;-71
2023/11/01 00:51:13;;;;;;;55.30;1.87;;;;;;;;;;5053686;28;20478;-72
2023/11/01 00:53:40;;;;;;;57.07;2.17;;;;;;;;;;5053502;28;20453;-71
2023/11/01 00:56:09;;;;;;;55.47;1.80;;;;;;;;;;5053296;28;20450;-71
2023/11/01 00:58:36;;;;;;;55.97;2.00;;;;;;;;;;5053695;28;20444;-71
2023/11/01 01:01:03;;;;;;;55.77;2.00;;;;;;;;;;5053290;28;20494;-70
2023/11/01 01:03:30;;;;;;;55.80;1.77;;;;;;;;;;5053530;28;20824;-70
2023/11/01 01:05:57;;;;;;;55.87;1.87;;;;;;;;;;5053680;28;20448;-71
2023/11/01 01:08:24;;;;;;;55.67;1.80;;;;;;;;;;5053190;28;20456;-70
2023/11/01 01:10:51;;;;;;;55.87;1.97;;;;;;;;;;5053021;28;20502;-71
2023/11/01 01:13:20;;;;;;;55.80;1.90;;;;;;;;;;5052511;28;20459;-70
2023/11/01 01:15:47;;;;;;;56.40;2.00;;;;;;;;;;5052865;28;20444;-70
2023/11/01 01:18:14;;;;;;;55.63;1.97;;;;;;;;;;5053178;28;20454;-71
2023/11/01 01:20:42;;;;;;;55.73;2.00;;;;;;;;;;5052854;28;20559;-70
2023/11/01 01:23:09;;;;;;;55.17;1.70;;;;;;;;;;5053022;28;20461;-70
2023/11/01 01:25:36;;;;;;;55.33;1.67;;;;;;;;;;5053030;28;20451;-71
2023/11/01 01:28:03;;;;;;;55.37;1.90;;;;;;;;;;5053001;28;20444;-71
2023/11/01 01:33:35;;;;;;;55.77;1.90;;;;;;;;;;5052357;28;20950;-70
2023/11/01 01:36:02;;;;;;;55.70;1.90;;;;;;;;;;5052337;28;20979;-70
2023/11/01 01:38:29;;;;;;;55.70;1.80;;;;;;;;;;5052919;28;20447;-70
2023/11/01 01:40:56;;;;;;;55.57;1.80;;;;;;;;;;5052258;28;20472;-70
2023/11/01 01:43:24;;;;;;;55.90;2.00;;;;;;;;;;5052810;28;20450;-70
2023/11/01 01:45:56;;;;;;;55.70;1.93;;;;;;;;;;5052400;28;20446;-71
2023/11/01 01:48:23;;;;;;;55.40;1.97;;;;;;;;;;5052590;28;20441;-71
2023/11/01 01:50:51;;;;;;;55.80;1.90;;;;;;;;;;5052115;28;20474;-71
2023/11/01 01:53:19;;;;;;;55.27;1.97;;;;;;;;;;5052520;28;20475;-70
2023/11/01 01:55:46;;;;;;;55.57;1.93;;;;;;;;;;5052186;28;20451;-70
2023/11/01 01:58:14;;;;;;;55.77;1.83;;;;;;;;;;5044100;28;20441;-70
2023/11/01 02:00:41;;;;;;;55.53;2.10;;;;;;;;;;5051919;28;20475;-70
2023/11/01 02:03:09;;;;;;;55.80;1.80;;;;;;;;;;5052125;28;20477;-71
2023/11/01 02:05:36;;;;;;;55.83;2.07;;;;;;;;;;5052123;28;20792;-71
2023/11/01 02:08:04;;;;;;;59.50;2.20;;;;;;;;;;5052221;28;20441;-71
2023/11/01 02:10:31;;;;;;;55.37;2.10;;;;;;;;;;5051927;28;20489;-70
2023/11/01 02:12:58;;;;;;;55.80;1.83;;;;;;;;;;5051881;28;20452;-70
2023/11/01 02:15:25;;;;;;;55.43;2.00;;;;;;;;;;5051735;28;20448;-71
2023/11/01 02:17:52;;;;;;;55.50;1.90;;;;;;;;;;5051791;28;20936;-71
2023/11/01 02:20:20;;;;;;;55.70;1.97;;;;;;;;;;5051209;28;20836;-70
2023/11/01 02:22:47;;;;;;;55.57;1.93;;;;;;;;;;5051634;28;21026;-71
2023/11/01 02:25:16;;;;;;;55.90;1.90;;;;;;;;;;5051451;28;20798;-70
2023/11/01 02:27:43;;;;;;;55.63;1.97;;;;;;;;;;5051826;28;20446;-71
2023/11/01 02:30:16;;;;;;;55.80;1.80;;;;;;;;;;5051661;28;20525;-71
2023/11/01 02:32:47;;;;;;;55.73;1.80;;;;;;;;;;5051749;28;20455;-70
2023/11/01 02:35:14;;;;;;;55.90;2.13;;;;;;;;;;5051214;28;20543;-70
2023/11/01 02:37:41;;;;;;;55.60;1.73;;;;;;;;;;5051877;28;20444;-70
2023/11/01 02:40:09;;;;;;;55.77;2.33;;;;;;;;;;5051533;28;20462;-70
2023/11/01 02:42:41;;;;;;;55.70;2.20;;;;;;;;;;5051281;28;20997;-70
2023/11/01 02:45:09;;;;;;;55.27;1.93;;;;;;;;;;5051313;28;20501;-70
2023/11/01 02:47:36;;;;;;;55.90;1.90;;;;;;;;;;5051227;28;20813;-70
2023/11/01 02:50:05;;;;;;;55.37;1.80;;;;;;;;;;5051072;28;20489;-71
2023/11/01 02:52:32;;;;;;;56.33;2.30;;;;;;;;;;5051337;28;20459;-70
2023/11/01 02:54:59;;;;;;;55.67;1.87;;;;;;;;;;5051037;28;20450;-70
2023/11/01 02:57:26;;;;;;;55.17;1.73;;;;;;;;;;5051300;28;20444;-70
2023/11/01 02:59:55;;;;;;;55.73;2.00;;;;;;;;;;5050903;28;20465;-71
2023/11/01 03:02:22;;;;;;;55.60;1.90;;;;;;;;;;5050981;28;20450;-70
2023/11/01 03:04:49;;;;;;;55.87;1.80;;;;;;;;;;5050899;28;20933;-70
2023/11/01 03:07:16;;;;;;;55.47;2.00;;;;;;;;;;5051285;28;20459;-70
2023/11/01 03:09:44;;;;;;;55.77;1.97;;;;;;;;;;5051028;28;20857;-71
2023/11/01 03:12:11;;;;;;;55.37;2.00;;;;;;;;;;5050864;28;20820;-71
2023/11/01 03:14:38;;;;;;;55.27;1.90;;;;;;;;;;5050724;28;20453;-71
2023/11/01 03:17:07;;;;;;;55.77;1.90;;;;;;;;;;5050888;28;20452;-70
2023/11/01 03:19:35;;;;;;;55.80;2.20;;;;;;;;;;5050874;28;20838;-71
2023/11/01 03:22:02;;;;;;;55.53;2.20;;;;;;;;;;5050896;28;20496;-70
2023/11/01 03:24:29;;;;;;;55.70;1.80;;;;;;;;;;5050843;28;20444;-70
2023/11/01 03:26:57;;;;;;;55.47;1.77;;;;;;;;;;5051325;28;20448;-70
2023/11/01 03:29:24;;;;;;;55.77;1.80;;;;;;;;;;5050491;28;20826;-70
2023/11/01 03:31:52;;;;;;;55.70;1.80;;;;;;;;;;5051013;28;20456;-70
2023/11/01 03:34:20;;;;;;;55.60;1.90;;;;;;;;;;5050841;28;20543;-71
2023/11/01 03:36:47;;;;;;;55.43;1.90;;;;;;;;;;5049997;28;20450;-70
2023/11/01 03:39:15;;;;;;;55.57;1.83;;;;;;;;;;5050567;28;20434;-71
2023/11/01 03:41:43;;;;;;;55.47;1.80;;;;;;;;;;5050586;28;20448;-71
2023/11/01 03:44:10;;;;;;;55.63;1.90;;;;;;;;;;5050504;28;20963;-70
2023/11/01 03:46:37;;;;;;;55.77;1.87;;;;;;;;;;5050710;28;20474;-70
2023/11/01 03:49:04;;;;;;;55.87;1.93;;;;;;;;;;5050637;28;20442;-70
2023/11/01 03:51:33;;;;;;;55.57;1.90;;;;;;;;;;5050528;28;20990;-70
2023/11/01 03:54:00;;;;;;;55.37;1.90;;;;;;;;;;5050630;28;20444;-70
2023/11/01 03:56:27;;;;;;;55.87;2.17;;;;;;;;;;5050297;28;20825;-70
2023/11/01 03:58:54;;;;;;;55.97;2.30;;;;;;;;;;5050670;28;20452;-71
2023/11/01 04:01:22;;;;;;;55.57;2.03;;;;;;;;;;5050331;28;20539;-70
2023/11/01 04:03:49;;;;;;;55.77;1.90;;;;;;;;;;5050464;28;20946;-71
2023/11/01 04:06:16;;;;;;;55.70;2.00;;;;;;;;;;5050493;28;21005;-70
2023/11/01 04:08:44;;;;;;;55.47;1.90;;;;;;;;;;5050346;28;20952;-71
2023/11/01 04:11:11;;;;;;;55.67;1.70;;;;;;;;;;5050133;28;20523;-70
2023/11/01 04:13:39;;;;;;;55.70;1.70;;;;;;;;;;5050612;28;20454;-70
2023/11/01 04:16:06;;;;;;;55.80;1.90;;;;;;;;;;5050506;28;20444;-70
2023/11/01 04:18:34;;;;;;;56.20;2.00;;;;;;;;;;5050313;28;20925;-71
2023/11/01 04:21:01;;;;;;;55.10;2.10;;;;;;;;;;5050069;28;20954;-71
2023/11/01 04:23:28;;;;;;;55.87;1.93;;;;;;;;;;5050824;28;20455;-70
2023/11/01 04:26:00;;;;;;;55.53;1.90;;;;;;;;;;5050155;28;20444;-71
2023/11/01 04:28:27;;;;;;;55.47;1.90;;;;;;;;;;5050464;28;20503;-70
2023/11/01 04:30:54;;;;;;;55.73;2.10;;;;;;;;;;5049968;28;20485;-71
2023/11/01 04:33:21;;;;;;;55.97;2.20;;;;;;;;;;5050248;28;20467;-71
2023/11/01 04:35:49;;;;;;;56.10;2.50;;;;;;;;;;5049971;28;20445;-70
2023/11/01 04:38:18;;;;;;;56.30;2.80;;;;;;;;;;5050201;28;20448;-71
2023/11/01 04:40:45;;;;;;;56.10;2.23;;;;;;;;;;5050259;28;20495;-70
2023/11/01 04:43:14;;;;;;;55.90;2.03;;;;;;;;;;5050492;28;20452;-71
2023/11/01 04:45:41;;;;;;;56.10;2.13;;;;;;;;;;5050101;28;20475;-71
2023/11/01 04:48:08;;;;;;;56.00;2.20;;;;;;;;;;5050804;28;20446;-70
2023/11/01 04:50:35;;;;;;;56.20;2.27;;;;;;;;;;5053343;28;20496;-70
2023/11/01 04:53:03;;;;;;;55.90;2.10;;;;;;;;;;5053712;28;20473;-70
2023/11/01 04:55:30;;;;;;;56.13;1.90;;;;;;;;;;5053384;28;20941;-70
2023/11/01 04:57:57;;;;;;;56.10;2.27;;;;;;;;;;5053271;28;20453;-71
2023/11/01 05:00:25;;;;;;;55.87;2.27;;;;;;;;;;5053305;28;20479;-70
2023/11/01 05:02:53;;;;;;;59.03;3.00;;;;;;;;;;5053339;28;20453;-70
2023/11/01 05:05:20;;;;;;;56.07;2.30;;;;;;;;;;5052984;28;20449;-71
2023/11/01 05:07:47;;;;;;;56.20;2.43;;;;;;;;;;5053347;28;20457;-70
2023/11/01 05:10:15;;;;;;;56.10;2.60;;;;;;;;;;5053012;28;20997;-71
2023/11/01 05:12:42;;;;;;;55.70;2.50;;;;;;;;;;5052815;28;20971;-70
2023/11/01 05:15:10;;;;;;;56.07;2.13;;;;;;;;;;5053079;28;20444;-70
2023/11/01 05:17:40;;;;;;;55.77;2.30;;;;;;;;;;5053124;28;20467;-70
2023/11/01 05:20:07;;;;;;;56.40;2.77;;;;;;;;;;5053312;28;20538;-70
2023/11/01 05:22:35;;;;;;;55.57;2.30;;;;;;;;;;5053247;28;20451;-71
2023/11/01 05:25:13;;;;;;;56.20;2.20;;;;;;;;;;5052806;28;20463;-70
2023/11/01 05:27:40;;;;;;;55.97;2.30;;;;;;;;;;5053761;28;20550;-70
2023/11/01 05:30:09;;;;;;;56.23;2.30;;;;;;;;;;5052813;28;20996;-71
2023/11/01 05:32:36;;;;;;;55.33;2.20;;;;;;;;;;5052875;28;20871;-71
2023/11/01 05:35:06;;;;;;;55.73;2.37;;;;;;;;;;5052795;28;20448;-70
2023/11/01 05:37:34;;;;;;;56.00;2.23;;;;;;;;;;5053194;28;20824;-70
2023/11/01 05:40:01;;;;;;;56.17;2.30;;;;;;;;;;5052556;28;21011;-71
2023/11/01 05:42:28;;;;;;;56.20;2.57;;;;;;;;;;5052648;28;20840;-70
2023/11/01 05:44:55;;;;;;;56.07;2.30;;;;;;;;;;5052561;28;20455;-71
2023/11/01 05:47:22;;;;;;;55.80;2.40;;;;;;;;;;5052985;28;20455;-71
2023/11/01 05:49:49;;;;;;;55.87;2.40;;;;;;;;;;5052665;28;20468;-71
2023/11/01 05:52:18;;;;;;;56.00;2.27;;;;;;;;;;5053208;28;20448;-71
2023/11/01 05:54:45;;;;;;;55.37;2.07;;;;;;;;;;5053642;28;20491;-71
2023/11/01 05:57:12;;;;;;;56.30;2.20;;;;;;;;;;5053888;28;20818;-71
2023/11/01 05:59:39;;;;;;;55.10;2.10;;;;;;;;;;5052796;28;20480;-72
2023/11/01 06:02:06;;;;;;;56.20;2.10;;;;;;;;;;5053480;28;20466;-71
2023/11/01 06:04:34;;;;;;;56.27;2.13;;;;;;;;;;5053318;28;20546;-72
2023/11/01 06:07:02;;;;;;;56.10;2.10;;;;;;;;;;5053238;28;20444;-72
2023/11/01 06:09:30;;;;;;;55.97;2.17;;;;;;;;;;5052869;28;20893;-72
2023/11/01 06:11:58;;;;;;;56.10;2.03;;;;;;;;;;5053866;28;20487;-71
2023/11/01 06:14:25;;;;;;;56.33;2.30;;;;;;;;;;5053421;28;20448;-71
2023/11/01 06:16:52;;;;;;;56.27;2.17;;;;;;;;;;5053294;28;20456;-71
2023/11/01 06:19:19;;;;;;;55.90;2.20;;;;;;;;;;5053059;28;20448;-71
2023/11/01 06:21:46;;;;;;;56.03;2.40;;;;;;;;;;5052177;28;20934;-71
2023/11/01 06:24:14;;;;;;;56.17;2.70;;;;;;;;;;5051811;28;20462;-72
2023/11/01 06:26:44;;;;;;;55.50;2.20;;;;;;;;;;5052347;28;20450;-71
2023/11/01 06:29:11;;;;;;;56.00;2.30;;;;;;;;;;5052391;28;20851;-71
2023/11/01 06:31:39;;;;;;;56.30;2.30;;;;;;;;;;5051893;28;20862;-71
2023/11/01 06:34:06;;;;;;;55.90;2.20;;;;;;;;;;5051479;28;20446;-71
2023/11/01 06:36:33;;;;;;;55.83;2.30;;;;;;;;;;5051511;28;20455;-70
2023/11/01 06:39:00;;;;;;;56.27;2.20;;;;;;;;;;5051489;28;20454;-71
2023/11/01 06:41:27;;;;;;;55.97;2.20;;;;;;;;;;5043435;28;20473;-71
2023/11/01 06:43:55;;;;;;;56.10;2.40;;;;;;;;;;5051497;28;20450;-71
2023/11/01 06:46:23;;;;;;;55.93;2.07;;;;;;;;;;5051348;28;20446;-70
2023/11/01 06:48:50;;;;;;;56.37;2.20;;;;;;;;;;5051375;28;20491;-72
2023/11/01 06:51:17;;;;;;;55.63;2.07;;;;;;;;;;5050966;28;20576;-71
2023/11/01 06:53:44;;;;;;;56.10;2.50;;;;;;;;;;5051246;28;20464;-71
2023/11/01 06:56:11;;;;;;;57.00;2.50;;;;;;;;;;5051132;28;20963;-71
2023/11/01 06:58:38;;;;;;;56.20;2.43;;;;;;;;;;5051411;28;20865;-71
2023/11/01 07:01:07;;;;;;;56.27;2.30;;;;;;;;;;5051096;28;20567;-71
2023/11/01 07:03:34;;;;;;;55.43;2.50;;;;;;;;;;5051178;28;20456;-70
2023/11/01 07:06:01;;;;;;;56.20;2.17;;;;;;;;;;5050971;28;20461;-70
2023/11/01 07:08:28;;;;;;;56.10;2.30;;;;;;;;;;5051185;28;20892;-71
2023/11/01 07:10:56;;;;;;;55.63;2.40;;;;;;;;;;5050574;28;20488;-70
2023/11/01 07:13:23;;;;;;;55.83;2.50;;;;;;;;;;5050561;28;20445;-71
2023/11/01 07:15:50;;;;;;;56.17;2.13;;;;;;;;;;5050829;28;20460;-71
2023/11/01 07:18:19;;;;;;;56.20;2.30;;;;;;;;;;5050839;28;20487;-71
2023/11/01 07:20:46;;;;;;;56.20;2.27;;;;;;;;;;5050709;28;20828;-71
2023/11/01 07:23:13;;;;;;;55.77;2.30;;;;;;;;;;5050861;28;20552;-71
2023/11/01 07:25:40;;;;;;;55.90;2.13;;;;;;;;;;5050908;28;20464;-71
2023/11/01 07:28:07;;;;;;;56.40;2.33;;;;;;;;;;5050747;28;20449;-71
2023/11/01 07:30:35;;;;;;;55.73;2.07;;;;;;;;;;5050775;28;20495;-71
2023/11/01 07:33:02;;;;;;;55.67;2.00;;;;;;;;;;5050688;28;20449;-71
2023/11/01 07:35:30;;;;;;;55.37;2.00;;;;;;;;;;5042619;28;20446;-70
2023/11/01 07:37:57;;;;;;;55.67;2.03;;;;;;;;;;5050638;28;20448;-71
2023/11/01 07:40:24;;;;;;;55.33;2.20;;;;;;;;;;5050604;28;20974;-70
2023/11/01 07:42:51;;;;;;;55.43;2.43;;;;;;;;;;5050612;28;21062;-71
2023/11/01 07:45:18;;;;;;;55.87;2.27;;;;;;;;;;5050506;28;20840;-70
2023/11/01 07:47:45;;;;;;;55.57;2.27;;;;;;;;;;5050485;28;20495;-71
2023/11/01 07:50:14;;;;;;;55.73;2.13;;;;;;;;;;5050599;28;20540;-70
2023/11/01 07:52:43;;;;;;;55.80;2.00;;;;;;;;;;5050608;28;20929;-70
2023/11/01 07:55:10;;;;;;;55.67;2.10;;;;;;;;;;5050497;28;20444;-71
2023/11/01 07:57:37;;;;;;;55.43;1.90;;;;;;;;;;5050545;28;20503;-70
2023/11/01 08:00:05;;;;;;;55.57;2.10;;;;;;;;;;5050255;28;20474;-71
2023/11/01 08:02:33;;;;;;;55.53;2.20;;;;;;;;;;5050521;28;20957;-71
2023/11/01 08:05:00;;;;;;;55.27;2.00;;;;;;;;;;5050263;28;20936;-70
2023/11/01 08:07:27;;;;;;;55.87;2.20;;;;;;;;;;5050259;28;20452;-71
2023/11/01 08:09:56;;;;;;;56.67;2.40;;;;;;;;;;5050195;28;21045;-70
2023/11/01 08:12:23;;;;;;;55.70;2.10;;;;;;;;;;5050175;28;20488;-70
2023/11/01 08:14:51;;;;;;;55.87;2.30;;;;;;;;;;5050112;28;20456;-71
2023/11/01 08:17:18;;;;;;;55.67;2.17;;;;;;;;;;5050555;28;20805;-71
2023/11/01 08:19:45;;;;;;;56.00;2.00;;;;;;;;;;5050524;28;20461;-70
2023/11/01 08:22:13;;;;;;;55.87;2.00;;;;;;;;;;5050078;28;20928;-71
2023/11/01 08:24:40;;;;;;;56.63;2.27;;;;;;;;;;5053567;28;20459;-71
2023/11/01 08:27:08;;;;;;;55.50;1.80;;;;;;;;;;5054013;28;20455;-70
2023/11/01 08:29:37;;;;;;;55.47;1.87;;;;;;;;;;5054195;28;20834;-70
2023/11/01 08:32:05;;;;;;;55.33;2.10;;;;;;;;;;5053872;28;20585;-70
2023/11/01 08:34:32;;;;;;;55.80;2.10;;;;;;;;;;5054116;28;20547;-71
2023/11/01 08:36:59;;;;;;;55.47;1.77;;;;;;;;;;5053987;28;20976;-70
2023/11/01 08:39:26;;;;;;;55.33;1.90;;;;;;;;;;5053759;28;20458;-71
2023/11/01 08:41:53;;;;;;;55.60;2.00;;;;;;;;;;5053680;28;20448;-71
2023/11/01 08:44:22;;;;;;;55.57;2.20;;;;;;;;;;5053747;28;20454;-71
2023/11/01 08:46:49;;;;;;;55.57;1.80;;;;;;;;;;5049063;28;20950;-70
2023/11/01 08:49:16;;;;;;;55.47;1.70;;;;;;;;;;5049525;28;20456;-70
2023/11/01 08:51:43;;;;;;;55.70;1.90;;;;;;;;;;5053562;28;20562;-71
2023/11/01 08:54:10;;;;;;;55.77;2.10;;;;;;;;;;5053428;28;20448;-71
2023/11/01 08:56:38;;;;;;;55.60;1.97;;;;;;;;;;5053477;28;20455;-70
2023/11/01 08:59:05;;;;;;;55.47;1.87;;;;;;;;;;5053439;28;20458;-71
2023/11/01 09:01:34;;;;;;;55.67;1.80;;;;;;;;;;5053454;28;20594;-71
2023/11/01 09:04:01;;;;;;;55.73;1.83;;;;;;;;;;5053576;28;20826;-71
2023/11/01 09:06:30;;;;;;;55.27;1.80;;;;;;;;;;5053261;28;21415;-71
2023/11/01 09:08:57;;;;;;;55.30;1.90;;;;;;;;;;5053404;28;20823;-71
2023/11/01 09:11:25;;;;;;;56.47;2.60;;;;;;;;;;5053233;28;20495;-71
2023/11/01 09:13:52;;;;;;;55.27;1.80;;;;;;;;;;5053251;28;20553;-71
2023/11/01 09:16:20;;;;;;;55.57;1.90;;;;;;;;;;5053111;28;20449;-72
2023/11/01 09:18:48;;;;;;;55.80;1.60;;;;;;;;;;5053346;28;20547;-72
2023/11/01 09:21:15;;;;;;;55.47;2.10;;;;;;;;;;5052837;28;20468;-72
2023/11/01 09:23:42;;;;;;;55.53;1.83;;;;;;;;;;5053509;28;20981;-71
2023/11/01 09:26:14;;;;;;;55.47;1.80;;;;;;;;;;5053249;28;20451;-70
2023/11/01 09:28:41;;;;;;;55.77;1.90;;;;;;;;;;5053086;28;20547;-69
2023/11/01 09:31:08;;;;;;;55.47;1.83;;;;;;;;;;5052617;28;20496;-70
2023/11/01 09:33:35;;;;;;;55.90;1.90;;;;;;;;;;5052971;28;20462;-71
2023/11/01 09:36:04;;;;;;;56.00;2.10;;;;;;;;;;5051492;28;20462;-71
2023/11/01 09:38:31;;;;;;;55.90;1.90;;;;;;;;;;5053066;28;20449;-71
2023/11/01 09:41:01;;;;;;;55.77;1.73;;;;;;;;;;5052961;28;20464;-70
2023/11/01 09:43:30;;;;;;;55.80;1.90;;;;;;;;;;5052768;28;20462;-71
2023/11/01 09:45:57;;;;;;;55.73;1.73;;;;;;;;;;5052605;28;20457;-71
2023/11/01 09:48:24;;;;;;;56.20;2.10;;;;;;;;;;5052435;28;20473;-71
2023/11/01 09:50:54;;;;;;;55.67;2.10;;;;;;;;;;5052906;28;20782;-71
2023/11/01 09:53:22;;;;;;;55.67;2.20;;;;;;;;;;5052722;28;20443;-70
2023/11/01 09:55:49;;;;;;;55.90;1.73;;;;;;;;;;5052443;28;20551;-71
2023/11/01 09:58:19;;;;;;;55.97;1.97;;;;;;;;;;5052597;28;20937;-71
2023/11/01 10:00:46;;;;;;;56.20;2.27;;;;;;;;;;5052112;28;20473;-71
2023/11/01 10:03:15;;;;;;;55.70;1.90;;;;;;;;;;5052510;28;20447;-70
2023/11/01 10:05:42;;;;;;;55.97;1.87;;;;;;;;;;5052419;28;20821;-71
2023/11/01 10:08:10;;;;;;;56.10;2.10;;;;;;;;;;5052372;28;20451;-71
2023/11/01 10:10:39;;;;;;;55.70;1.90;;;;;;;;;;5052092;28;20461;-70
2023/11/01 10:13:06;;;;;;;56.00;2.37;;;;;;;;;;5052120;28;20983;-68
2023/11/01 10:15:33;;;;;;;56.03;1.90;;;;;;;;;;5051905;28;20505;-69
2023/11/01 10:18:00;;;;;;;55.80;1.90;;;;;;;;;;5052270;28;20451;-70
2023/11/01 10:20:28;;;;;;;56.20;2.13;;;;;;;;;;5052212;28;20470;-69
2023/11/01 10:22:55;;;;;;;55.80;1.83;;;;;;;;;;5051999;28;20459;-69
2023/11/01 10:25:23;;;;;;;56.33;2.37;;;;;;;;;;5051940;28;20814;-70
2023/11/01 10:27:51;;;;;;;55.67;1.90;;;;;;;;;;5051860;28;20455;-69
2023/11/01 10:30:19;;;;;;;56.00;2.00;;;;;;;;;;5051610;28;20485;-70
2023/11/01 10:32:54;;;;;;;55.47;1.77;;;;;;;;;;5051901;28;20484;-70
2023/11/01 10:35:21;;;;;;;55.23;1.80;;;;;;;;;;5051532;28;20822;-69
2023/11/01 10:37:48;;;;;;;55.77;1.97;;;;;;;;;;5051822;28;20826;-72
2023/11/01 10:40:16;;;;;;;55.77;2.17;;;;;;;;;;5051988;28;20475;-69
2023/11/01 10:42:43;;;;;;;55.80;1.80;;;;;;;;;;5051348;28;20441;-70
2023/11/01 10:45:12;;;;;;;55.80;1.83;;;;;;;;;;5051671;28;20448;-70
2023/11/01 10:47:39;;;;;;;55.60;1.80;;;;;;;;;;5051327;28;20838;-70
2023/11/01 10:50:07;;;;;;;57.43;1.90;;;;;;;;;;5051428;28;20483;-70
2023/11/01 10:52:35;;;;;;;55.70;1.87;;;;;;;;;;5051265;28;20486;-70
2023/11/01 10:55:04;;;;;;;55.57;1.63;;;;;;;;;;5051297;28;20466;-70
2023/11/01 10:57:32;;;;;;;55.37;1.60;;;;;;;;;;5051283;28;20952;-71
2023/11/01 11:00:05;;;;;;;55.03;1.67;;;;;;;;;;5051262;28;20472;-70
2023/11/01 11:02:39;;;;;;;55.20;1.50;;;;;;;;;;5051199;28;20447;-70
2023/11/01 11:05:09;;;;;;;55.90;2.00;;;;;;;;;;5051100;28;20505;-70
2023/11/01 11:07:44;;;;;;;55.27;1.60;;;;;;;;;;5051029;28;20487;-70
2023/11/01 11:10:24;;;;;;;55.60;1.80;;;;;;;;;;5051275;28;20458;-73
2023/11/01 11:13:10;;;;;;;55.77;1.60;;;;;;;;;;5050902;28;20828;-70
2023/11/01 11:15:58;;;;;;;55.70;1.73;;;;;;;;;;5050783;28;20816;-71
2023/11/01 11:18:27;;;;;;;55.90;1.80;;;;;;;;;;5051234;28;20446;-71
2023/11/01 11:20:55;;;;;;;55.70;1.67;;;;;;;;;;5050965;28;20513;-71
2023/11/01 11:23:31;;;;;;;55.77;1.80;;;;;;;;;;5051082;28;20507;-71
2023/11/01 11:25:59;;;;;;;56.30;2.27;;;;;;;;;;5050880;28;20450;-71
2023/11/01 11:28:44;;;;;;;55.80;1.60;;;;;;;;;;5051093;28;20445;-71
2023/11/01 11:31:16;;;;;;;56.47;1.80;;;;;;;;;;5051261;28;20469;-71
2023/11/01 11:34:01;;;;;;;55.77;1.90;;;;;;;;;;5051249;28;20494;-71
2023/11/01 11:36:30;;;;;;;55.70;1.63;;;;;;;;;;5050544;28;20960;-71
2023/11/01 11:38:57;;;;;;;55.57;1.80;;;;;;;;;;5050895;28;20529;-71
2023/11/01 11:41:25;;;;;;;55.67;1.70;;;;;;;;;;5050853;28;20476;-71
2023/11/01 11:44:01;;;;;;;55.77;1.73;;;;;;;;;;5050870;28;20458;-73
2023/11/01 11:46:30;;;;;;;55.70;1.80;;;;;;;;;;5050651;28;20451;-71
2023/11/01 11:48:57;;;;;;;55.60;1.70;;;;;;;;;;5051269;28;20456;-70
2023/11/01 11:51:24;;;;;;;55.77;1.70;;;;;;;;;;5050413;28;20471;-72
2023/11/01 11:53:53;;;;;;;55.60;1.70;;;;;;;;;;5050775;28;21029;-72
2023/11/01 11:56:20;;;;;;;55.47;1.90;;;;;;;;;;5050418;28;21012;-72
2023/11/01 11:58:48;;;;;;;56.37;2.23;;;;;;;;;;5053111;28;20530;-72
2023/11/01 12:01:24;;;;;;;56.00;2.30;;;;;;;;;;5054420;28;20481;-72
2023/11/01 12:03:52;;;;;;;55.67;1.80;;;;;;;;;;5054603;28;20454;-72
2023/11/01 12:06:20;;;;;;;55.73;1.90;;;;;;;;;;5054473;28;20444;-71
2023/11/01 12:08:48;;;;;;;56.03;2.00;;;;;;;;;;5054437;28;20459;-72
2023/11/01 12:11:16;;;;;;;55.90;2.10;;;;;;;;;;5054409;28;20557;-73
2023/11/01 12:13:45;;;;;;;55.93;1.90;;;;;;;;;;5054275;28;21036;-71
2023/11/01 12:16:12;;;;;;;56.17;2.03;;;;;;;;;;5054182;28;20451;-71
2023/11/01 12:18:39;;;;;;;55.93;1.80;;;;;;;;;;5054192;28;20444;-72
2023/11/01 12:21:13;;;;;;;56.20;2.27;;;;;;;;;;5054197;28;21013;-72
2023/11/01 12:23:47;;;;;;;55.97;2.10;;;;;;;;;;5054285;28;20445;-71
2023/11/01 12:26:14;;;;;;;59.77;2.10;;;;;;;;;;5054023;28;20449;-70
2023/11/01 12:28:49;;;;;;;55.97;1.90;;;;;;;;;;5054144;28;20827;-71
2023/11/01 12:31:18;;;;;;;55.83;1.90;;;;;;;;;;5053801;28;20577;-70
2023/11/01 12:33:45;;;;;;;55.93;1.90;;;;;;;;;;5046101;28;20501;-73
2023/11/01 12:36:12;;;;;;;56.50;2.10;;;;;;;;;;5053945;28;20457;-70
2023/11/01 12:38:45;;;;;;;55.87;2.10;;;;;;;;;;5053893;28;20480;-72
2023/11/01 12:41:12;;;;;;;55.47;2.00;;;;;;;;;;5053644;28;20481;-71
2023/11/01 12:43:39;;;;;;;55.53;1.70;;;;;;;;;;5053822;28;20595;-73
2023/11/01 12:46:07;;;;;;;55.70;1.70;;;;;;;;;;5053895;28;20464;-71
2023/11/01 12:48:34;;;;;;;56.10;2.20;;;;;;;;;;5053769;28;20455;-70
2023/11/01 12:51:02;;;;;;;55.77;2.07;;;;;;;;;;5053543;28;20483;-72
2023/11/01 12:53:29;;;;;;;55.97;2.00;;;;;;;;;;5053441;28;20600;-71
2023/11/01 12:55:56;;;;;;;56.00;1.97;;;;;;;;;;5053501;28;20458;-71
2023/11/01 12:58:23;;;;;;;55.90;1.93;;;;;;;;;;5053770;28;20728;-72
2023/11/01 13:00:50;;;;;;;55.80;2.00;;;;;;;;;;5053308;28;20486;-71
2023/11/01 13:03:20;;;;;;;56.20;1.87;;;;;;;;;;5053476;28;20919;-72
2023/11/01 13:05:47;;;;;;;57.17;3.70;;;;;;;;;;5053628;28;20440;-72
2023/11/01 13:08:16;;;;;;;56.03;2.40;;;;;;;;;;5053506;28;20449;-72
2023/11/01 13:10:43;;;;;;;56.27;2.07;;;;;;;;;;5053021;28;20474;-72
2023/11/01 13:13:10;;;;;;;56.07;2.40;;;;;;;;;;5053129;28;20494;-73
2023/11/01 13:15:37;;;;;;;56.03;2.10;;;;;;;;;;5053017;28;20459;-71
2023/11/01 13:18:04;;;;;;;55.90;2.10;;;;;;;;;;5053312;28;20444;-73
2023/11/01 13:20:32;;;;;;;55.93;2.03;;;;;;;;;;5053012;28;20481;-73
2023/11/01 13:22:59;;;;;;;55.97;2.00;;;;;;;;;;5053041;28;20817;-72
2023/11/01 13:25:26;;;;;;;55.97;2.00;;;;;;;;;;5053045;28;20459;-72
2023/11/01 13:27:54;;;;;;;55.90;1.80;;;;;;;;;;5053229;28;20684;-71
2023/11/01 13:30:21;;;;;;;55.70;1.83;;;;;;;;;;5052855;28;20468;-72
2023/11/01 13:32:48;;;;;;;55.93;1.90;;;;;;;;;;5052825;28;20495;-71
2023/11/01 13:35:15;;;;;;;55.83;1.90;;;;;;;;;;5052692;28;20451;-71
2023/11/01 13:37:43;;;;;;;55.60;1.90;;;;;;;;;;5052666;28;20976;-73
2023/11/01 13:40:11;;;;;;;55.87;1.90;;;;;;;;;;5053030;28;20500;-73
2023/11/01 13:42:38;;;;;;;56.00;1.90;;;;;;;;;;5052642;28;20499;-74
2023/11/01 13:45:06;;;;;;;55.80;1.97;;;;;;;;;;5051951;28;20451;-72
2023/11/01 13:47:34;;;;;;;55.87;1.90;;;;;;;;;;5052136;28;20455;-72
2023/11/01 13:50:01;;;;;;;55.83;1.83;;;;;;;;;;5052459;28;20470;-72
2023/11/01 13:52:28;;;;;;;55.83;2.00;;;;;;;;;;5052175;28;20483;-70
2023/11/01 13:54:56;;;;;;;56.00;1.90;;;;;;;;;;5052186;28;20448;-72
2023/11/01 13:57:23;;;;;;;55.97;1.90;;;;;;;;;;5052284;28;20505;-71
2023/11/01 13:59:50;;;;;;;55.87;2.10;;;;;;;;;;5051407;28;20841;-70
2023/11/01 14:02:17;;;;;;;56.07;1.90;;;;;;;;;;5052132;28;20476;-71
2023/11/01 14:04:44;;;;;;;55.87;1.83;;;;;;;;;;5051911;28;20440;-70
2023/11/01 14:07:11;;;;;;;55.67;1.80;;;;;;;;;;5052391;28;20445;-71
2023/11/01 14:09:39;;;;;;;55.90;1.70;;;;;;;;;;5052124;28;20468;-71
2023/11/01 14:12:08;;;;;;;56.17;2.33;;;;;;;;;;5052160;28;20460;-71
2023/11/01 14:14:35;;;;;;;56.10;2.10;;;;;;;;;;5051668;28;20496;-72
2023/11/01 14:17:02;;;;;;;56.13;2.00;;;;;;;;;;5052054;28;20444;-71
2023/11/01 14:19:29;;;;;;;56.03;1.93;;;;;;;;;;5052064;28;20447;-72
2023/11/01 14:21:56;;;;;;;56.03;1.80;;;;;;;;;;5051565;28;20818;-71
2023/11/01 14:24:24;;;;;;;56.20;2.10;;;;;;;;;;5052016;28;20483;-71
2023/11/01 14:26:51;;;;;;;56.00;2.00;;;;;;;;;;5051879;28;20710;-71
2023/11/01 14:29:20;;;;;;;55.90;2.00;;;;;;;;;;5051526;28;20507;-71
2023/11/01 14:31:47;;;;;;;56.07;2.00;;;;;;;;;;5051258;28;20951;-71
2023/11/01 14:34:14;;;;;;;56.20;1.90;;;;;;;;;;5052017;28;20501;-71
2023/11/01 14:36:41;;;;;;;55.97;1.80;;;;;;;;;;5051598;28;20453;-74
2023/11/01 14:39:09;;;;;;;55.90;1.90;;;;;;;;;;5051594;28;20954;-73